Time;durP1;ratioP1;P1;durP2;ratioP2;P2;SDS_P1;SDS_P2;PMS_P1;PMS_P2;Temp;Humidity;BMP_temperature;BMP_pressure;BME280_temperature;BME280_humidity;BME280_pressure;Samples;Min_cycle;Max_cycle;Signal;HPM_P1;HPM_P2
2022/11/04 00:00:14;;;;;;;;;;;;;;;9.19;66.22;100212.66;5074332;28;19947;-65
2022/11/04 00:02:39;;;;;;;;;;;;;;;9.32;65.99;100208.88;5073533;28;20368;-65
2022/11/04 00:05:05;;;;;;;;;;;;;;;9.47;65.73;100210.34;5073170;28;20007;-66
2022/11/04 00:10:14;;;;;;;;;;;;;;;9.85;65.19;100206.97;5073373;28;20325;-66
2022/11/04 00:12:39;;;;;;;;;;;;;;;9.99;65.06;100204.03;5073183;28;20022;-65
2022/11/04 00:17:59;;;;;;;;;;;;;;;10.19;64.24;100194.84;5035782;28;19936;-65
2022/11/04 00:28:53;;;;;;;;;;;;;;;10.43;63.82;100194.28;5072616;28;19958;-64
2022/11/04 00:34:02;;;;;;;;;;;;;;;10.45;63.75;100187.25;5071101;28;19951;-65
2022/11/04 00:36:28;;;;;;;;;;;;;;;10.49;63.82;100178.41;5071116;28;19972;-65
2022/11/04 00:38:53;;;;;;;;;;;;;;;10.50;64.09;100176.63;5071750;28;19924;-64
2022/11/04 00:41:25;;;;;;;;;;;;;;;10.60;63.77;100171.09;5071777;28;19920;-65
2022/11/04 00:44:00;;;;;;;;;;;;;;;10.57;63.90;100165.94;5072122;28;20425;-65
2022/11/04 00:46:26;;;;;;;;;;;;;;;10.65;63.77;100164.84;5070350;28;19978;-65
2022/11/04 00:48:52;;;;;;;;;;;;;;;10.57;63.84;100160.69;5070851;28;19928;-65
2022/11/04 00:51:18;;;;;;;;;;;;;;;10.52;63.63;100159.91;5072171;28;20268;-65
2022/11/04 00:53:43;;;;;;;;;;;;;;;10.50;64.12;100159.09;5072597;28;19964;-66
2022/11/04 00:56:09;;;;;;;;;;;;;;;10.52;63.99;100165.16;5071075;28;19971;-66
2022/11/04 00:58:34;;;;;;;;;;;;;;;10.48;64.01;100160.03;5071838;28;20008;-66
2022/11/04 01:00:59;;;;;;;;;;;;;;;10.51;64.00;100159.97;5072404;28;19978;-65
2022/11/04 01:03:24;;;;;;;;;;;;;;;10.39;64.31;100155.88;5105161;28;20348;-65
2022/11/04 01:05:50;;;;;;;;;;;;;;;10.52;64.08;100151.16;5070632;28;19921;-65
2022/11/04 01:08:15;;;;;;;;;;;;;;;10.55;63.79;100136.19;5072503;28;19932;-64
2022/11/04 01:10:43;;;;;;;;;;;;;;;10.49;63.89;100133.75;5070956;28;20398;-64
2022/11/04 01:13:11;;;;;;;;;;;;;;;10.56;63.85;100126.53;5069922;28;20277;-65
2022/11/04 01:15:37;;;;;;;;;;;;;;;10.51;64.06;100123.19;5071334;28;19921;-65
2022/11/04 01:18:03;;;;;;;;;;;;;;;10.55;63.88;100116.94;5070391;28;19924;-65
2022/11/04 01:20:28;;;;;;;;;;;;;;;10.60;63.86;100118.53;5071943;28;19964;-65
2022/11/04 01:22:53;;;;;;;;;;;;;;;10.68;63.77;100112.22;5069835;28;20037;-64
2022/11/04 01:25:19;;;;;;;;;;;;;;;10.79;63.64;100110.19;5071467;28;19925;-65
2022/11/04 01:27:44;;;;;;;;;;;;;;;10.90;63.35;100108.13;5072701;28;19924;-65
2022/11/04 01:30:10;;;;;;;;;;;;;;;10.91;63.46;100101.09;5072307;28;19937;-65
2022/11/04 01:32:35;;;;;;;;;;;;;;;11.01;63.13;100098.19;5069665;28;19924;-64
2022/11/04 01:35:00;;;;;;;;;;;;;;;11.06;63.09;100096.28;5074398;28;19924;-64
2022/11/04 01:37:25;;;;;;;;;;;;;;;11.15;62.91;100094.31;5076128;28;20299;-66
2022/11/04 01:39:51;;;;;;;;;;;;;;;11.18;62.85;100097.72;5074751;28;20443;-64
2022/11/04 01:42:19;;;;;;;;;;;;;;;11.17;63.36;100090.75;5073645;28;19964;-65
2022/11/04 01:44:46;;;;;;;;;;;;;;;11.20;63.15;100088.00;5074822;28;19928;-64
2022/11/04 01:47:16;;;;;;;;;;;;;;;11.28;62.63;100074.63;5075618;28;20441;-65
2022/11/04 01:49:41;;;;;;;;;;;;;;;11.31;62.69;100075.41;5075656;28;19925;-65
2022/11/04 01:52:12;;;;;;;;;;;;;;;11.37;62.44;100066.47;5074751;28;19925;-66
2022/11/04 01:54:39;;;;;;;;;;;;;;;11.43;62.59;100065.44;5074998;28;19921;-65
2022/11/04 01:57:06;;;;;;;;;;;;;;;11.49;62.35;100062.59;5078157;28;19927;-64
2022/11/04 01:59:35;;;;;;;;;;;;;;;11.51;62.22;100060.78;5074839;28;19920;-65
2022/11/04 02:02:01;;;;;;;;;;;;;;;11.44;62.38;100060.09;5075614;28;19920;-65
2022/11/04 02:04:26;;;;;;;;;;;;;;;11.53;62.12;100048.44;5075319;28;19977;-66
2022/11/04 02:06:54;;;;;;;;;;;;;;;11.53;62.15;100051.06;5075667;28;20295;-65
2022/11/04 02:09:20;;;;;;;;;;;;;;;11.47;62.69;100046.88;5069849;28;19920;-65
2022/11/04 02:14:30;;;;;;;;;;;;;;;11.54;62.21;100035.25;5070674;28;19931;-65
2022/11/04 02:17:00;;;;;;;;;;;;;;;11.59;62.29;100035.97;5074048;28;19924;-65
2022/11/04 02:19:44;;;;;;;;;;;;;;;11.62;62.19;100036.78;5071554;28;19928;-65
2022/11/04 02:22:19;;;;;;;;;;;;;;;11.66;62.02;100028.75;5074468;28;19964;-65
2022/11/04 02:24:50;;;;;;;;;;;;;;;11.65;62.20;100021.78;5073488;28;19920;-64
2022/11/04 02:27:21;;;;;;;;;;;;;;;11.69;62.05;100022.50;5074888;28;20003;-64
2022/11/04 02:29:59;;;;;;;;;;;;;;;11.73;61.83;100018.88;5089698;28;20311;-65
2022/11/04 02:32:24;;;;;;;;;;;;;;;11.75;61.77;100017.06;5074789;28;19921;-64
2022/11/04 02:34:54;;;;;;;;;;;;;;;11.65;62.02;100008.59;5074581;28;20403;-64
2022/11/04 02:37:31;;;;;;;;;;;;;;;11.64;62.12;100004.22;5067689;28;19966;-66
2022/11/04 02:40:08;;;;;;;;;;;;;;;11.80;61.93;100017.75;5074872;28;19931;-66
2022/11/04 02:43:00;;;;;;;;;;;;;;;11.70;62.11;100011.09;5074576;28;19963;-65
2022/11/04 02:45:25;;;;;;;;;;;;;;;11.82;61.84;100015.97;5052068;28;19921;-66
2022/11/04 02:47:55;;;;;;;;;;;;;;;11.86;61.81;100011.50;5073794;28;19947;-66
2022/11/04 02:50:41;;;;;;;;;;;;;;;11.90;61.95;100007.84;5081185;28;19920;-66
2022/11/04 02:53:14;;;;;;;;;;;;;;;11.94;61.62;100002.41;5073887;28;19933;-66
2022/11/04 02:55:45;;;;;;;;;;;;;;;11.95;61.65;100009.41;5073502;28;19927;-64
2022/11/04 02:58:16;;;;;;;;;;;;;;;11.96;61.41;99997.94;5073771;28;19968;-65
2022/11/04 03:00:42;;;;;;;;;;;;;;;11.96;61.46;99997.94;5073729;28;19920;-66
2022/11/04 03:03:09;;;;;;;;;;;;;;;11.96;61.41;99992.69;5073358;28;19924;-65
2022/11/04 03:05:38;;;;;;;;;;;;;;;11.97;61.59;99991.78;5073909;28;19924;-65
2022/11/04 03:08:05;;;;;;;;;;;;;;;12.00;61.48;99981.13;5071903;28;19932;-65
2022/11/04 03:10:39;;;;;;;;;;;;;;;12.01;61.77;99977.63;5074161;28;19982;-64
2022/11/04 03:13:10;;;;;;;;;;;;;;;12.06;61.22;99980.09;5088614;28;19928;-65
2022/11/04 03:15:37;;;;;;;;;;;;;;;12.05;61.17;99979.22;5073472;28;20013;-65
2022/11/04 03:18:09;;;;;;;;;;;;;;;12.03;61.26;99969.66;5073820;28;19921;-66
2022/11/04 03:20:36;;;;;;;;;;;;;;;11.96;61.37;99968.13;5071365;28;19925;-66
2022/11/04 03:23:02;;;;;;;;;;;;;;;11.92;61.39;99967.38;5072657;28;19924;-66
2022/11/04 03:25:31;;;;;;;;;;;;;;;11.90;61.58;99958.69;5074154;28;19928;-65
2022/11/04 03:28:02;;;;;;;;;;;;;;;11.86;61.77;99957.06;5072197;28;19951;-65
2022/11/04 03:30:32;;;;;;;;;;;;;;;11.89;62.37;99946.44;5072692;28;19928;-66
2022/11/04 03:32:57;;;;;;;;;;;;;;;11.99;61.34;99945.19;5072871;28;20011;-66
2022/11/04 03:35:23;;;;;;;;;;;;;;;12.05;61.35;99945.00;5072796;28;19967;-65
2022/11/04 03:37:49;;;;;;;;;;;;;;;12.03;61.37;99944.19;5073801;28;20326;-66
2022/11/04 03:40:15;;;;;;;;;;;;;;;12.06;61.28;99945.84;5072780;28;19978;-66
2022/11/04 03:42:44;;;;;;;;;;;;;;;12.06;61.18;99954.63;5072308;28;19920;-65
2022/11/04 03:45:10;;;;;;;;;;;;;;;12.19;60.97;99944.50;5071744;28;19920;-66
2022/11/04 03:47:35;;;;;;;;;;;;;;;12.18;60.92;99947.19;5073359;28;19974;-66
2022/11/04 03:50:11;;;;;;;;;;;;;;;12.25;61.12;99943.44;5071754;28;19924;-66
2022/11/04 03:52:37;;;;;;;;;;;;;;;12.30;60.50;99941.50;5072942;28;19924;-66
2022/11/04 03:55:03;;;;;;;;;;;;;;;12.28;60.39;99938.91;5072502;28;19939;-65
2022/11/04 03:58:07;;;;;;;;;;;;;;;12.36;60.51;99941.25;5072936;28;19920;-65
2022/11/04 04:00:34;;;;;;;;;;;;;;;12.45;60.39;99935.69;5031068;28;20519;-66
2022/11/04 04:03:02;;;;;;;;;;;;;;;12.45;60.43;99935.69;5032294;28;19964;-66
2022/11/04 04:05:46;;;;;;;;;;;;;;;12.48;60.42;99926.78;5045641;28;19920;-66
2022/11/04 04:08:30;;;;;;;;;;;;;;;12.64;59.77;99924.44;5071753;28;19965;-65
2022/11/04 04:10:58;;;;;;;;;;;;;;;12.65;59.52;99927.03;5071650;28;19928;-65
2022/11/04 04:13:35;;;;;;;;;;;;;;;12.69;60.07;99927.78;5074367;28;19920;-64
2022/11/04 04:16:00;;;;;;;;;;;;;;;12.61;59.73;99925.44;5071464;28;19920;-65
2022/11/04 04:18:38;;;;;;;;;;;;;;;12.67;59.61;99934.88;5073696;28;20330;-65
2022/11/04 04:21:06;;;;;;;;;;;;;;;12.65;59.57;99931.47;5072170;28;19955;-65
2022/11/04 04:29:05;;;;;;;;;;;;;;;12.62;59.64;99926.28;5070993;28;19947;-65
2022/11/04 04:31:51;;;;;;;;;;;;;;;12.60;59.86;99930.75;5072776;28;19961;-66
2022/11/04 04:34:25;;;;;;;;;;;;;;;12.47;60.07;99933.84;5072297;28;19928;-66
2022/11/04 04:36:56;;;;;;;;;;;;;;;12.48;60.28;99922.38;5071444;28;19973;-65
2022/11/04 04:44:58;;;;;;;;;;;;;;;12.61;59.62;99924.56;5072152;28;19934;-65
2022/11/04 04:47:25;;;;;;;;;;;;;;;12.56;59.88;99924.72;5067342;28;19928;-65
2022/11/04 04:49:51;;;;;;;;;;;;;;;12.52;60.81;99918.72;5071198;28;19932;-65
2022/11/04 04:52:18;;;;;;;;;;;;;;;12.55;60.35;99920.38;5072795;28;20019;-65
2022/11/04 04:54:43;;;;;;;;;;;;;;;12.58;60.04;99922.91;5072348;28;19925;-63
2022/11/04 04:57:09;;;;;;;;;;;;;;;12.58;60.19;99920.28;5070835;28;20405;-64
2022/11/04 04:59:34;;;;;;;;;;;;;;;12.69;59.73;99918.09;5072920;28;19974;-64
2022/11/04 05:01:59;;;;;;;;;;;;;;;12.75;59.95;99919.63;5071028;28;20751;-64
2022/11/04 05:04:25;;;;;;;;;;;;;;;12.80;59.31;99918.53;5072892;28;19920;-64
2022/11/04 05:06:50;;;;;;;;;;;;;;;12.79;60.03;99918.59;5071916;28;20291;-65
2022/11/04 05:09:15;;;;;;;;;;;;;;;12.85;59.89;99918.38;5073792;28;19956;-64
2022/11/04 05:11:41;;;;;;;;;;;;;;;12.84;59.20;99914.00;5076697;28;19920;-65
2022/11/04 05:14:06;;;;;;;;;;;;;;;12.84;59.50;99914.00;5075027;28;20368;-65
2022/11/04 05:16:31;;;;;;;;;;;;;;;12.95;59.05;99918.88;5076769;28;19963;-66
2022/11/04 05:18:56;;;;;;;;;;;;;;;12.96;59.06;99913.53;5075498;28;19993;-67
2022/11/04 05:21:22;;;;;;;;;;;;;;;12.95;59.00;99918.88;5076385;28;20292;-65
2022/11/04 05:23:47;;;;;;;;;;;;;;;13.02;58.56;99915.94;5057195;28;19940;-64
2022/11/04 05:26:14;;;;;;;;;;;;;;;12.89;59.05;99912.06;5076507;28;20033;-65
2022/11/04 05:28:39;;;;;;;;;;;;;;;13.04;59.43;99903.53;5075523;28;19931;-65
2022/11/04 05:31:05;;;;;;;;;;;;;;;13.05;58.71;99902.66;5074979;28;19928;-66
2022/11/04 05:33:31;;;;;;;;;;;;;;;13.03;58.92;99900.97;5075062;28;19921;-67
2022/11/04 05:36:15;;;;;;;;;;;;;;;13.02;58.57;99907.19;5076420;28;20280;-65
2022/11/04 05:38:41;;;;;;;;;;;;;;;12.85;58.82;99902.56;5077275;28;19913;-66
2022/11/04 05:41:07;;;;;;;;;;;;;;;12.85;59.34;99889.38;5080321;28;19931;-66
2022/11/04 05:43:33;;;;;;;;;;;;;;;12.76;59.50;99892.34;5076791;28;20038;-65
2022/11/04 05:45:59;;;;;;;;;;;;;;;12.78;61.40;99885.25;5076121;28;19964;-64
2022/11/04 05:48:24;;;;;;;;;;;;;;;12.95;59.05;99885.44;5075355;28;19927;-64
2022/11/04 05:50:49;;;;;;;;;;;;;;;12.76;60.46;99882.66;5076319;28;21787;-65
2022/11/04 05:53:15;;;;;;;;;;;;;;;12.76;59.73;99889.72;5081762;28;19927;-65
2022/11/04 05:55:40;;;;;;;;;;;;;;;12.74;59.19;99895.06;5075658;28;19929;-65
2022/11/04 05:58:05;;;;;;;;;;;;;;;12.89;58.92;99893.63;5078503;28;19921;-66
2022/11/04 06:00:31;;;;;;;;;;;;;;;12.83;59.14;99885.94;5082287;28;19924;-67
2022/11/04 06:02:56;;;;;;;;;;;;;;;12.81;59.23;99890.41;5081966;28;20388;-65
2022/11/04 06:05:22;;;;;;;;;;;;;;;12.80;59.19;99892.16;5075149;28;19924;-68
2022/11/04 06:07:47;;;;;;;;;;;;;;;12.73;59.33;99893.34;5078873;28;19920;-68
2022/11/04 06:10:12;;;;;;;;;;;;;;;12.79;59.28;99903.63;5078364;28;19925;-68
2022/11/04 06:12:38;;;;;;;;;;;;;;;12.79;59.30;99894.88;5080517;28;20009;-67
2022/11/04 06:15:03;;;;;;;;;;;;;;;12.68;59.81;99886.50;5072860;28;20279;-67
2022/11/04 06:17:28;;;;;;;;;;;;;;;12.69;59.89;99891.75;5080503;28;19931;-67
2022/11/04 06:19:54;;;;;;;;;;;;;;;12.71;59.33;99897.81;5086386;28;20350;-65
2022/11/04 06:22:19;;;;;;;;;;;;;;;12.63;59.63;99894.59;5074131;28;19924;-66
2022/11/04 06:24:44;;;;;;;;;;;;;;;12.71;59.75;99895.16;5074415;28;19920;-67
2022/11/04 06:27:10;;;;;;;;;;;;;;;12.71;59.54;99894.31;5075157;28;19928;-67
2022/11/04 06:29:39;;;;;;;;;;;;;;;12.70;59.44;99897.88;5074722;28;19932;-67
2022/11/04 06:32:07;;;;;;;;;;;;;;;12.78;59.22;99901.06;5073979;28;19986;-66
2022/11/04 06:34:33;;;;;;;;;;;;;;;12.90;59.25;99905.03;5073000;28;19924;-66
2022/11/04 06:36:58;;;;;;;;;;;;;;;12.95;58.53;99898.63;5077813;28;19999;-67
2022/11/04 06:39:23;;;;;;;;;;;;;;;13.05;58.61;99900.00;5075224;28;19927;-67
2022/11/04 06:41:49;;;;;;;;;;;;;;;13.02;58.70;99902.75;5080749;28;19921;-66
2022/11/04 06:44:14;;;;;;;;;;;;;;;13.20;58.25;99910.84;5066288;28;20333;-66
2022/11/04 06:46:41;;;;;;;;;;;;;;;13.10;58.25;99912.16;5074748;28;19927;-67
2022/11/04 06:49:09;;;;;;;;;;;;;;;13.26;58.28;99900.09;5075250;28;19969;-67
2022/11/04 06:51:34;;;;;;;;;;;;;;;13.44;57.86;99901.13;5075072;28;20257;-68
2022/11/04 06:53:59;;;;;;;;;;;;;;;13.44;58.22;99901.97;5074147;28;20371;-66
2022/11/04 06:56:25;;;;;;;;;;;;;;;13.56;58.60;99903.25;5074954;28;19925;-67
2022/11/04 06:58:51;;;;;;;;;;;;;;;13.65;57.25;99894.97;5074845;28;19920;-67
2022/11/04 07:01:16;;;;;;;;;;;;;;;13.67;57.32;99897.53;5074541;28;19927;-68
2022/11/04 07:03:42;;;;;;;;;;;;;;;13.70;56.63;99900.91;5073045;28;19995;-66
2022/11/04 07:06:08;;;;;;;;;;;;;;;13.85;56.61;99896.78;5073272;28;19924;-68
2022/11/04 07:08:33;;;;;;;;;;;;;;;13.83;56.21;99895.97;5073129;28;19916;-68
2022/11/04 07:10:58;;;;;;;;;;;;;;;14.00;56.46;99897.88;5071964;28;19970;-68
2022/11/04 07:13:23;;;;;;;;;;;;;;;14.07;55.90;99901.13;5074394;28;19928;-68
2022/11/04 07:15:49;;;;;;;;;;;;;;;14.08;55.85;99901.03;5074055;28;20466;-69
2022/11/04 07:18:14;;;;;;;;;;;;;;;14.13;58.48;99896.44;5073881;28;19978;-68
2022/11/04 07:20:40;;;;;;;;;;;;;;;14.21;56.23;99889.03;5073957;28;19920;-68
2022/11/04 07:23:05;;;;;;;;;;;;;;;14.26;56.54;99894.97;5074115;28;19928;-68
2022/11/04 07:25:30;;;;;;;;;;;;;;;14.26;57.45;99897.59;5074608;28;19920;-68
2022/11/04 07:27:55;;;;;;;;;;;;;;;14.40;56.20;99890.81;5070484;28;19924;-67
2022/11/04 07:30:21;;;;;;;;;;;;;;;14.42;55.27;99892.47;5074118;28;19933;-67
2022/11/04 07:32:46;;;;;;;;;;;;;;;14.35;55.22;99895.47;5074188;28;19928;-67
2022/11/04 07:35:12;;;;;;;;;;;;;;;14.19;54.96;99898.78;5074409;28;19917;-66
2022/11/04 07:37:37;;;;;;;;;;;;;;;14.17;55.19;99905.09;5074731;28;19932;-67
2022/11/04 07:40:03;;;;;;;;;;;;;;;14.17;55.37;99907.72;5074904;28;19920;-67
2022/11/04 07:42:29;;;;;;;;;;;;;;;14.19;55.89;99900.56;5107136;28;20384;-67
2022/11/04 07:44:54;;;;;;;;;;;;;;;14.23;55.94;99895.09;5074719;28;19971;-67
2022/11/04 07:47:19;;;;;;;;;;;;;;;14.35;55.91;99896.31;5074070;28;19921;-67
2022/11/04 07:49:45;;;;;;;;;;;;;;;14.55;56.04;99903.38;5074135;28;20024;-68
2022/11/04 07:52:10;;;;;;;;;;;;;;;14.60;54.77;99903.16;5074359;28;20326;-67
2022/11/04 07:54:36;;;;;;;;;;;;;;;14.70;55.10;99889.47;5073829;28;19931;-66
2022/11/04 07:57:01;;;;;;;;;;;;;;;14.83;54.15;99905.63;5074671;28;20025;-67
2022/11/04 07:59:27;;;;;;;;;;;;;;;14.83;53.82;99899.47;5074358;28;19971;-67
2022/11/04 08:01:52;;;;;;;;;;;;;;;14.95;53.93;99901.53;5073881;28;19924;-68
2022/11/04 08:04:18;;;;;;;;;;;;;;;14.86;55.21;99899.34;5074307;28;19920;-68
2022/11/04 08:06:44;;;;;;;;;;;;;;;15.01;54.60;99891.53;5073954;28;19921;-68
2022/11/04 08:09:09;;;;;;;;;;;;;;;15.09;53.57;99892.97;5072365;28;19925;-67
2022/11/04 08:11:34;;;;;;;;;;;;;;;15.02;53.65;99885.31;5073520;28;20019;-68
2022/11/04 08:14:02;;;;;;;;;;;;;;;14.96;53.41;99888.25;5074694;28;19973;-68
2022/11/04 08:16:27;;;;;;;;;;;;;;;15.05;53.65;99889.59;5074414;28;19924;-68
2022/11/04 08:18:52;;;;;;;;;;;;;;;14.98;53.26;99888.19;5073544;28;19925;-68
2022/11/04 08:21:18;;;;;;;;;;;;;;;15.10;53.58;99882.28;5074797;28;20058;-67
2022/11/04 08:23:45;;;;;;;;;;;;;;;15.12;53.88;99877.81;5074950;28;19960;-68
2022/11/04 08:26:17;;;;;;;;;;;;;;;15.13;53.70;99873.38;5075387;28;19924;-68
2022/11/04 08:28:43;;;;;;;;;;;;;;;15.11;53.28;99869.91;5073534;28;20331;-68
2022/11/04 08:31:19;;;;;;;;;;;;;;;15.02;53.64;99879.16;5073313;28;19921;-68
2022/11/04 08:33:44;;;;;;;;;;;;;;;14.96;53.66;99888.25;5072578;28;19917;-68
2022/11/04 08:36:12;;;;;;;;;;;;;;;15.27;55.27;99881.47;5073975;28;19917;-68
2022/11/04 08:38:37;;;;;;;;;;;;;;;15.50;56.47;99878.56;5074669;28;20388;-68
2022/11/04 08:41:04;;;;;;;;;;;;;;;15.71;52.26;99867.84;5073717;28;19931;-67
2022/11/04 08:43:29;;;;;;;;;;;;;;;15.79;51.77;99868.31;5073642;28;19923;-67
2022/11/04 08:45:54;;;;;;;;;;;;;;;15.93;52.31;99864.97;5075499;28;20019;-67
2022/11/04 08:48:20;;;;;;;;;;;;;;;15.98;52.98;99861.13;5077172;28;20261;-68
2022/11/04 08:50:49;;;;;;;;;;;;;;;16.12;52.68;99864.88;5076858;28;20329;-67
2022/11/04 08:53:15;;;;;;;;;;;;;;;16.16;51.58;99869.94;5076855;28;19964;-67
2022/11/04 08:55:40;;;;;;;;;;;;;;;16.24;55.05;99869.53;5076641;28;20038;-67
2022/11/04 08:58:05;;;;;;;;;;;;;;;16.26;51.29;99872.94;5075443;28;19920;-67
2022/11/04 09:00:31;;;;;;;;;;;;;;;16.10;51.67;99877.31;5080237;28;19925;-67
2022/11/04 09:02:57;;;;;;;;;;;;;;;16.12;53.41;99871.03;5076800;28;19921;-67
2022/11/04 09:05:22;;;;;;;;;;;;;;;15.91;51.31;99872.97;5079555;28;19944;-67
2022/11/04 09:07:48;;;;;;;;;;;;;;;15.86;51.35;99871.50;5076555;28;20009;-67
2022/11/04 09:10:13;;;;;;;;;;;;;;;15.86;52.72;99867.06;5076540;28;20387;-67
2022/11/04 09:12:40;;;;;;;;;;;;;;;15.69;52.23;99861.78;5076249;28;19947;-67
2022/11/04 09:15:06;;;;;;;;;;;;;;;15.74;53.61;99865.91;5076195;28;20056;-67
2022/11/04 09:17:31;;;;;;;;;;;;;;;15.88;52.57;99866.97;5076656;28;20435;-68
2022/11/04 09:19:56;;;;;;;;;;;;;;;15.92;51.61;99866.75;5076190;28;20330;-67
2022/11/04 09:22:22;;;;;;;;;;;;;;;15.93;51.62;99870.25;5082715;28;20018;-66
2022/11/04 09:24:47;;;;;;;;;;;;;;;15.73;52.05;99863.34;5074252;28;19936;-68
2022/11/04 09:27:13;;;;;;;;;;;;;;;15.77;52.79;99875.50;5080090;28;19943;-67
2022/11/04 09:29:39;;;;;;;;;;;;;;;15.82;52.11;99864.66;5077060;28;19924;-66
2022/11/04 09:32:05;;;;;;;;;;;;;;;15.86;52.85;99868.84;5076432;28;20023;-67
2022/11/04 09:34:31;;;;;;;;;;;;;;;15.85;53.31;99865.34;5076140;28;20382;-68
2022/11/04 09:36:56;;;;;;;;;;;;;;;16.05;51.90;99860.81;5076650;28;19921;-68
2022/11/04 09:39:22;;;;;;;;;;;;;;;16.18;53.79;99859.22;5076713;28;20023;-67
2022/11/04 09:41:59;;;;;;;;;;;;;;;16.31;51.52;99865.56;5075751;28;20038;-67
2022/11/04 09:44:28;;;;;;;;;;;;;;;16.48;50.89;99862.03;5071865;28;19939;-67
2022/11/04 09:47:00;;;;;;;;;;;;;;;16.51;50.85;99859.22;5074894;28;19962;-68
2022/11/04 09:49:28;;;;;;;;;;;;;;;16.48;52.84;99859.41;5076050;28;19924;-68
2022/11/04 09:51:56;;;;;;;;;;;;;;;16.60;50.67;99858.72;5076790;28;19917;-67
2022/11/04 09:54:23;;;;;;;;;;;;;;;16.64;51.75;99860.28;5076354;28;20385;-67
2022/11/04 09:56:50;;;;;;;;;;;;;;;16.60;50.20;99853.41;5076502;28;19924;-66
2022/11/04 09:59:26;;;;;;;;;;;;;;;16.68;51.31;99850.34;5076729;28;19917;-66
2022/11/04 10:02:10;;;;;;;;;;;;;;;16.62;50.44;99851.53;5076837;28;19923;-68
2022/11/04 10:04:41;;;;;;;;;;;;;;;16.65;51.64;99845.22;5076625;28;19916;-68
2022/11/04 10:07:16;;;;;;;;;;;;;;;16.65;50.20;99847.84;5076369;28;19916;-67
2022/11/04 10:10:01;;;;;;;;;;;;;;;16.70;52.93;99856.41;5076186;28;19924;-67
2022/11/04 10:12:44;;;;;;;;;;;;;;;16.70;50.07;99840.50;5076770;28;19916;-67
2022/11/04 10:15:10;;;;;;;;;;;;;;;16.74;50.70;99836.75;5076240;28;19940;-67
2022/11/04 10:18:03;;;;;;;;;;;;;;;16.62;50.66;99832.09;5076060;28;20352;-69
2022/11/04 10:20:34;;;;;;;;;;;;;;;16.50;50.82;99831.84;5076988;28;19938;-66
2022/11/04 10:23:12;;;;;;;;;;;;;;;16.38;51.64;99829.00;5077643;28;19942;-67
2022/11/04 10:25:43;;;;;;;;;;;;;;;16.41;51.57;99829.69;5076205;28;19920;-67
2022/11/04 10:28:15;;;;;;;;;;;;;;;16.45;50.24;99825.94;5076179;28;20011;-66
2022/11/04 10:30:42;;;;;;;;;;;;;;;16.54;50.26;99821.06;5077195;28;19916;-67
2022/11/04 10:33:10;;;;;;;;;;;;;;;16.76;50.70;99816.31;5076925;28;19921;-68
2022/11/04 10:35:38;;;;;;;;;;;;;;;16.79;50.41;99817.94;5091626;28;20406;-67
2022/11/04 10:38:13;;;;;;;;;;;;;;;16.77;49.63;99815.38;5076071;28;20374;-67
2022/11/04 10:40:40;;;;;;;;;;;;;;;16.67;49.13;99809.69;5075608;28;19917;-67
2022/11/04 10:43:09;;;;;;;;;;;;;;;16.97;49.44;99815.09;5075766;28;19917;-67
2022/11/04 10:45:42;;;;;;;;;;;;;;;17.16;49.24;99806.94;5075605;28;19970;-67
2022/11/04 10:48:14;;;;;;;;;;;;;;;17.41;48.84;99822.28;5075990;28;19954;-67
2022/11/04 10:50:55;;;;;;;;;;;;;;;17.57;48.82;99824.91;5072875;28;19920;-67
2022/11/04 10:53:21;;;;;;;;;;;;;;;17.56;48.49;99815.22;5074708;28;20427;-67
2022/11/04 10:55:51;;;;;;;;;;;;;;;17.62;48.63;99816.66;5082278;28;20008;-67
2022/11/04 10:58:23;;;;;;;;;;;;;;;17.86;48.54;99809.91;5092540;28;20379;-68
2022/11/04 11:00:49;;;;;;;;;;;;;;;17.79;47.46;99807.69;5088137;28;19959;-67
2022/11/04 11:03:22;;;;;;;;;;;;;;;17.84;47.85;99809.16;5095323;28;19942;-67
2022/11/04 11:05:48;;;;;;;;;;;;;;;18.00;47.99;99805.56;5087912;28;19928;-68
2022/11/04 11:08:26;;;;;;;;;;;;;;;17.84;47.27;99801.19;5069154;28;20440;-68
2022/11/04 11:10:51;;;;;;;;;;;;;;;17.77;48.70;99794.53;5060672;28;20408;-68
2022/11/04 11:13:25;;;;;;;;;;;;;;;17.76;48.09;99794.63;5075070;28;19992;-67
2022/11/04 11:16:02;;;;;;;;;;;;;;;17.63;48.59;99811.25;5074878;28;19921;-67
2022/11/04 11:18:28;;;;;;;;;;;;;;;17.55;48.28;99807.34;5075297;28;19921;-67
2022/11/04 11:21:07;;;;;;;;;;;;;;;17.52;48.65;99800.44;5075136;28;19928;-67
2022/11/04 11:23:32;;;;;;;;;;;;;;;17.53;48.79;99788.00;5074856;28;20260;-67
2022/11/04 11:25:58;;;;;;;;;;;;;;;17.43;48.83;99785.00;5077415;28;20468;-68
2022/11/04 11:28:24;;;;;;;;;;;;;;;17.23;48.88;99780.88;5092992;28;19916;-66
2022/11/04 11:30:52;;;;;;;;;;;;;;;16.98;49.63;99776.16;5085748;28;19924;-67
2022/11/04 11:33:18;;;;;;;;;;;;;;;16.97;49.32;99775.28;5078578;28;19959;-68
2022/11/04 11:35:51;;;;;;;;;;;;;;;17.04;49.88;99777.63;5073732;28;19963;-67
2022/11/04 11:38:24;;;;;;;;;;;;;;;17.06;49.56;99773.91;5073785;28;19951;-67
2022/11/04 11:40:54;;;;;;;;;;;;;;;17.08;49.52;99779.16;5074183;28;19920;-67
2022/11/04 11:43:25;;;;;;;;;;;;;;;16.94;49.95;99779.91;5088017;28;19920;-68
2022/11/04 11:45:51;;;;;;;;;;;;;;;16.87;50.22;99784.72;5088982;28;19923;-68
2022/11/04 11:48:35;;;;;;;;;;;;;;;16.60;50.54;99776.50;5073283;28;19929;-67
2022/11/04 11:51:00;;;;;;;;;;;;;;;16.47;51.31;99776.31;5073881;28;19974;-67
2022/11/04 11:53:28;;;;;;;;;;;;;;;16.37;53.71;99772.47;5074005;28;19921;-68
2022/11/04 11:56:08;;;;;;;;;;;;;;;16.48;51.42;99767.44;5072698;28;20282;-67
2022/11/04 11:58:41;;;;;;;;;;;;;;;16.49;52.07;99777.09;5074781;28;19960;-67
2022/11/04 12:01:23;;;;;;;;;;;;;;;16.47;51.54;99776.31;5074190;28;19924;-67
2022/11/04 12:03:49;;;;;;;;;;;;;;;16.26;53.29;99780.16;5074599;28;19931;-68
2022/11/04 12:06:20;;;;;;;;;;;;;;;16.33;52.67;99775.38;5081286;28;20468;-68
2022/11/04 12:08:46;;;;;;;;;;;;;;;16.19;51.87;99782.28;5094522;28;19917;-67
2022/11/04 12:11:26;;;;;;;;;;;;;;;16.12;51.81;99790.66;5094498;28;19916;-68
2022/11/04 12:14:14;;;;;;;;;;;;;;;16.15;54.72;99785.19;5093877;28;19981;-67
2022/11/04 12:16:51;;;;;;;;;;;;;;;16.38;51.55;99781.28;5091595;28;19947;-67
2022/11/04 12:19:30;;;;;;;;;;;;;;;16.41;51.82;99786.41;5073442;28;20292;-66
2022/11/04 12:22:02;;;;;;;;;;;;;;;16.44;51.77;99787.13;5076185;28;19920;-68
2022/11/04 12:24:31;;;;;;;;;;;;;;;16.40;51.80;99782.06;5072928;28;19916;-68
2022/11/04 12:27:15;;;;;;;;;;;;;;;16.21;51.73;99785.72;5073161;28;19966;-66
2022/11/04 12:29:59;;;;;;;;;;;;;;;16.12;52.48;99785.38;5074424;28;20313;-67
2022/11/04 12:32:40;;;;;;;;;;;;;;;16.21;52.06;99784.84;5073313;28;19939;-66
2022/11/04 12:35:06;;;;;;;;;;;;;;;16.24;52.91;99780.25;5067626;28;19920;-67
2022/11/04 12:37:34;;;;;;;;;;;;;;;16.26;52.38;99791.59;5072882;28;20213;-66
2022/11/04 12:40:06;;;;;;;;;;;;;;;16.30;53.79;99791.44;5067466;28;19928;-67
2022/11/04 12:42:49;;;;;;;;;;;;;;;16.24;52.42;99784.69;5072468;28;19916;-66
2022/11/04 12:45:20;;;;;;;;;;;;;;;16.25;52.44;99771.34;5061866;28;19947;-66
2022/11/04 12:47:46;;;;;;;;;;;;;;;16.28;53.36;99765.03;5073674;28;19959;-67
2022/11/04 12:50:21;;;;;;;;;;;;;;;16.32;52.86;99769.22;5073601;28;19924;-67
2022/11/04 12:52:55;;;;;;;;;;;;;;;16.31;52.22;99764.84;5052543;28;19921;-67
2022/11/04 12:55:20;;;;;;;;;;;;;;;16.47;52.62;99770.16;5052927;28;20015;-67
2022/11/04 12:57:45;;;;;;;;;;;;;;;16.30;52.17;99768.44;5053697;28;20344;-67
2022/11/04 13:00:16;;;;;;;;;;;;;;;16.30;52.27;99771.09;5053671;28;19920;-67
2022/11/04 13:02:47;;;;;;;;;;;;;;;16.33;52.67;99765.63;5053545;28;19917;-67
2022/11/04 13:05:29;;;;;;;;;;;;;;;16.35;52.53;99770.84;5062316;28;20373;-67
2022/11/04 13:07:54;;;;;;;;;;;;;;;16.37;52.74;99764.53;5073762;28;19995;-67
2022/11/04 13:10:22;;;;;;;;;;;;;;;16.37;52.61;99771.63;5073575;28;19952;-67
2022/11/04 13:12:49;;;;;;;;;;;;;;;16.30;52.47;99767.59;5073574;28;20372;-67
2022/11/04 13:15:23;;;;;;;;;;;;;;;16.32;52.66;99771.00;5072350;28;20260;-68
2022/11/04 13:17:50;;;;;;;;;;;;;;;16.32;52.78;99769.22;5073598;28;20011;-67
2022/11/04 13:20:21;;;;;;;;;;;;;;;16.27;53.21;99764.16;5073639;28;19921;-68
2022/11/04 13:22:48;;;;;;;;;;;;;;;16.29;52.81;99758.78;5073551;28;19958;-68